createdAt,value
2023-04-13T00:00:40.787Z,568.00
2023-04-13T00:01:30.816Z,563.00
2023-04-13T00:02:20.948Z,564.00
2023-04-13T00:03:11.056Z,569.00
2023-04-13T00:04:01.431Z,570.00
2023-04-13T00:04:51.055Z,571.00
2023-04-13T00:05:41.349Z,574.00
2023-04-13T00:06:31.347Z,570.00
2023-04-13T00:07:21.439Z,568.00
2023-04-13T00:08:11.749Z,571.00
2023-04-13T00:09:01.769Z,574.00
2023-04-13T00:09:51.847Z,572.00
2023-04-13T00:10:42.213Z,573.00
2023-04-13T00:11:32.311Z,574.00
2023-04-13T00:12:22.276Z,566.00
2023-04-13T00:13:12.341Z,576.00
2023-04-13T00:14:02.417Z,565.00
2023-04-13T00:14:52.478Z,580.00
2023-04-13T00:15:42.562Z,575.00
2023-04-13T00:16:32.599Z,579.00
2023-04-13T00:17:22.634Z,579.00
2023-04-13T00:18:12.695Z,580.00
2023-04-13T00:19:02.753Z,580.00
2023-04-13T00:19:52.999Z,581.00
2023-04-13T00:20:43.077Z,586.00
2023-04-13T00:21:33.112Z,582.00
2023-04-13T00:22:23.433Z,579.00
2023-04-13T00:23:13.546Z,589.00
2023-04-13T00:24:03.577Z,589.00
2023-04-13T00:24:53.605Z,585.00
2023-04-13T00:25:43.690Z,590.00
2023-04-13T00:26:33.722Z,583.00
2023-04-13T00:27:23.769Z,603.00
2023-04-13T00:28:13.814Z,596.00
2023-04-13T00:29:03.892Z,595.00
2023-04-13T00:29:53.950Z,598.00
2023-04-13T00:30:44.079Z,594.00
2023-04-13T00:31:34.299Z,596.00
2023-04-13T00:32:24.285Z,596.00
2023-04-13T00:33:14.441Z,596.00
2023-04-13T00:34:04.397Z,588.00
2023-04-13T00:34:54.468Z,596.00
2023-04-13T00:35:44.545Z,594.00
2023-04-13T00:36:34.572Z,587.00
2023-04-13T00:37:24.654Z,601.00
2023-04-13T00:38:14.704Z,586.00
2023-04-13T00:39:05.019Z,588.00
2023-04-13T00:39:55.060Z,585.00
2023-04-13T00:40:45.203Z,596.00
2023-04-13T00:41:35.197Z,594.00
2023-04-13T00:42:25.263Z,594.00
2023-04-13T00:43:15.339Z,605.00
2023-04-13T00:44:05.393Z,599.00
2023-04-13T00:44:55.463Z,601.00
2023-04-13T00:45:45.551Z,596.00
2023-04-13T00:46:35.638Z,592.00
2023-04-13T00:47:25.655Z,593.00
2023-04-13T00:48:15.959Z,592.00
2023-04-13T00:49:05.999Z,595.00
2023-04-13T00:49:56.070Z,601.00
2023-04-13T00:50:46.407Z,597.00
2023-04-13T00:51:36.435Z,601.00
2023-04-13T00:52:26.504Z,594.00
2023-04-13T00:53:16.831Z,592.00
2023-04-13T00:54:06.914Z,586.00
2023-04-13T00:54:56.964Z,591.00
2023-04-13T00:55:47.308Z,591.00
2023-04-13T00:56:37.337Z,598.00
2023-04-13T00:57:27.406Z,602.00
2023-04-13T00:58:17.471Z,596.00
2023-04-13T00:59:07.669Z,599.00
2023-04-13T00:59:57.590Z,591.00
2023-04-13T01:00:47.629Z,591.00
2023-04-13T01:01:37.784Z,603.00
2023-04-13T01:02:27.759Z,591.00
2023-04-13T01:03:17.849Z,596.00
2023-04-13T01:04:07.832Z,598.00
2023-04-13T01:04:57.920Z,604.00
2023-04-13T01:05:47.962Z,595.00
2023-04-13T01:06:37.997Z,603.00
2023-04-13T01:07:28.061Z,603.00
2023-04-13T01:08:18.161Z,598.00
2023-04-13T01:09:08.202Z,587.00
2023-04-13T01:09:58.301Z,593.00
2023-04-13T01:10:48.368Z,592.00
2023-04-13T01:11:38.615Z,594.00
2023-04-13T01:12:28.660Z,588.00
2023-04-13T01:13:18.730Z,589.00
2023-04-13T01:14:09.068Z,592.00
2023-04-13T01:14:59.125Z,588.00
2023-04-13T01:15:49.200Z,593.00
2023-04-13T01:16:39.194Z,591.00
2023-04-13T01:17:29.290Z,591.00
2023-04-13T01:18:19.330Z,590.00
2023-04-13T01:19:09.398Z,585.00
2023-04-13T01:19:59.485Z,584.00
2023-04-13T01:20:49.550Z,593.00
2023-04-13T01:21:39.580Z,586.00
2023-04-13T01:22:29.653Z,593.00
2023-04-13T01:23:19.860Z,580.00
2023-04-13T01:24:09.906Z,582.00
2023-04-13T01:24:59.952Z,579.00
2023-04-13T01:25:50.051Z,581.00
2023-04-13T01:26:40.113Z,592.00
2023-04-13T01:27:30.164Z,582.00
2023-04-13T01:28:20.234Z,583.00
2023-04-13T01:29:10.325Z,586.00
2023-04-13T01:30:00.358Z,581.00
2023-04-13T01:30:50.393Z,580.00
2023-04-13T01:31:40.512Z,585.00
2023-04-13T01:32:30.693Z,584.00
2023-04-13T01:33:20.767Z,586.00
2023-04-13T01:34:10.822Z,579.00
2023-04-13T01:35:01.151Z,593.00
2023-04-13T01:35:51.222Z,581.00
2023-04-13T01:36:41.254Z,580.00
2023-04-13T01:37:31.275Z,580.00
2023-04-13T01:38:21.351Z,585.00
2023-04-13T01:39:11.418Z,584.00
2023-04-13T01:40:01.501Z,588.00
2023-04-13T01:40:51.598Z,588.00
2023-04-13T01:41:41.601Z,585.00
2023-04-13T01:42:31.679Z,594.00
2023-04-13T01:43:21.743Z,589.00
2023-04-13T01:44:11.892Z,585.00
2023-04-13T01:45:02.021Z,582.00
2023-04-13T01:45:52.029Z,571.00
2023-04-13T01:46:42.416Z,581.00
2023-04-13T01:47:32.449Z,580.00
2023-04-13T01:48:22.447Z,578.00
2023-04-13T01:49:12.516Z,577.00
2023-04-13T01:50:02.590Z,583.00
2023-04-13T01:50:52.680Z,582.00
2023-04-13T01:51:42.737Z,574.00
2023-04-13T01:52:32.765Z,579.00
2023-04-13T01:53:22.847Z,575.00
2023-04-13T01:54:12.938Z,572.00
2023-04-13T01:55:02.991Z,576.00
2023-04-13T01:55:53.207Z,579.00
2023-04-13T01:56:43.261Z,567.00
2023-04-13T01:57:33.284Z,575.00
2023-04-13T01:58:23.348Z,577.00
2023-04-13T01:59:13.415Z,572.00
2023-04-13T02:00:03.487Z,570.00
2023-04-13T02:00:53.613Z,577.00
2023-04-13T02:01:43.707Z,576.00
2023-04-13T02:02:33.779Z,574.00
2023-04-13T02:03:23.817Z,572.00
2023-04-13T02:04:14.077Z,567.00
2023-04-13T02:05:03.796Z,571.00
2023-04-13T02:05:53.881Z,573.00
2023-04-13T02:06:43.935Z,576.00
2023-04-13T02:07:33.944Z,579.00
2023-04-13T02:08:24.014Z,581.00
2023-04-13T02:09:14.081Z,578.00
2023-04-13T02:10:04.160Z,582.00
2023-04-13T02:10:54.224Z,576.00
2023-04-13T02:11:44.442Z,579.00
2023-04-13T02:12:34.646Z,584.00
2023-04-13T02:13:24.581Z,584.00
2023-04-13T02:14:14.864Z,580.00
2023-04-13T02:15:04.935Z,580.00
2023-04-13T02:15:55.081Z,583.00
2023-04-13T02:16:45.083Z,581.00
2023-04-13T02:17:35.081Z,589.00
2023-04-13T02:18:25.161Z,583.00
2023-04-13T02:19:15.176Z,587.00
2023-04-13T02:20:05.244Z,587.00
2023-04-13T02:20:55.334Z,584.00
2023-04-13T02:21:45.364Z,586.00
2023-04-13T02:22:35.429Z,580.00
2023-04-13T02:23:25.762Z,585.00
2023-04-13T02:24:15.837Z,577.00
2023-04-13T02:25:05.903Z,575.00
2023-04-13T02:25:56.205Z,577.00
2023-04-13T02:26:46.245Z,581.00
2023-04-13T02:27:36.302Z,583.00
2023-04-13T02:28:26.391Z,580.00
2023-04-13T02:29:16.437Z,584.00
2023-04-13T02:30:06.516Z,580.00
2023-04-13T02:30:56.567Z,578.00
2023-04-13T02:31:46.644Z,585.00
2023-04-13T02:32:36.666Z,578.00
2023-04-13T02:33:26.711Z,578.00
2023-04-13T02:34:16.737Z,572.00
2023-04-13T02:35:07.081Z,587.00
2023-04-13T02:35:57.174Z,584.00
2023-04-13T02:36:47.221Z,582.00
2023-04-13T02:37:37.237Z,580.00
2023-04-13T02:38:27.293Z,582.00
2023-04-13T02:39:17.332Z,595.00
2023-04-13T02:40:07.393Z,583.00
2023-04-13T02:40:57.459Z,584.00
2023-04-13T02:41:47.505Z,584.00
2023-04-13T02:42:37.534Z,574.00
2023-04-13T02:43:27.612Z,587.00
2023-04-13T02:44:17.962Z,585.00
2023-04-13T02:45:08.014Z,578.00
2023-04-13T02:45:58.090Z,588.00
2023-04-13T02:46:48.098Z,568.00
2023-04-13T02:47:38.142Z,576.00
2023-04-13T02:48:28.281Z,583.00
2023-04-13T02:49:18.251Z,580.00
2023-04-13T02:50:08.319Z,576.00
2023-04-13T02:50:58.410Z,579.00
2023-04-13T02:51:48.446Z,575.00
2023-04-13T02:52:38.474Z,582.00
2023-04-13T02:53:28.808Z,579.00
2023-04-13T02:54:18.876Z,587.00
2023-04-13T02:55:08.951Z,580.00
2023-04-13T02:55:59.293Z,578.00
2023-04-13T02:56:49.317Z,573.00
2023-04-13T02:57:39.353Z,585.00
2023-04-13T02:58:29.415Z,582.00
2023-04-13T02:59:19.440Z,578.00
2023-04-13T03:00:09.544Z,583.00
2023-04-13T03:00:59.649Z,574.00
2023-04-13T03:01:49.795Z,580.00
2023-04-13T03:02:39.822Z,579.00
2023-04-13T03:03:29.809Z,578.00
2023-04-13T03:04:19.835Z,576.00
2023-04-13T03:05:10.132Z,582.00
2023-04-13T03:06:00.203Z,578.00
2023-04-13T03:06:50.250Z,576.00
2023-04-13T03:07:40.278Z,578.00
2023-04-13T03:08:30.329Z,569.00
2023-04-13T03:09:20.376Z,576.00
2023-04-13T03:10:10.466Z,585.00
2023-04-13T03:11:00.496Z,636.00
2023-04-13T03:11:50.522Z,728.00
2023-04-13T03:12:40.588Z,924.00
2023-04-13T03:13:30.670Z,1037.00
2023-04-13T03:14:20.696Z,1095.00
2023-04-13T03:15:10.771Z,1170.00
2023-04-13T03:16:00.872Z,1203.00
2023-04-13T03:16:50.935Z,1218.00
2023-04-13T03:17:40.956Z,1211.00
2023-04-13T03:18:31.018Z,1216.00
2023-04-13T03:19:21.050Z,1220.00
2023-04-13T03:20:11.133Z,1209.00
2023-04-13T03:21:01.474Z,1252.00
2023-04-13T03:21:51.455Z,1257.00
2023-04-13T03:22:41.494Z,1267.00
2023-04-13T03:23:31.565Z,1323.00
2023-04-13T03:24:21.599Z,1352.00
2023-04-13T03:25:11.673Z,1368.00
2023-04-13T03:26:01.760Z,1385.00
2023-04-13T03:26:51.792Z,1433.00
2023-04-13T03:27:41.832Z,1445.00
2023-04-13T03:28:31.908Z,1481.00
2023-04-13T03:29:21.944Z,1495.00
2023-04-13T03:30:12.012Z,1525.00
2023-04-13T03:31:02.093Z,1549.00
2023-04-13T03:31:52.163Z,1555.00
2023-04-13T03:32:42.184Z,1563.00
2023-04-13T03:33:32.214Z,1581.00
2023-04-13T03:34:22.288Z,1589.00
2023-04-13T03:35:12.418Z,1594.00
2023-04-13T03:36:02.447Z,1594.00
2023-04-13T03:36:52.463Z,1594.00
2023-04-13T03:37:42.489Z,1601.00
2023-04-13T03:38:32.577Z,1604.00
2023-04-13T03:39:22.606Z,1619.00
2023-04-13T03:40:12.688Z,1625.00
2023-04-13T03:41:02.749Z,1626.00
2023-04-13T03:41:52.782Z,1618.00
2023-04-13T03:42:42.815Z,1623.00
2023-04-13T03:43:32.894Z,1646.00
2023-04-13T03:44:22.934Z,1631.00
2023-04-13T03:45:13.018Z,1634.00
2023-04-13T03:46:03.098Z,1651.00
2023-04-13T03:46:53.094Z,1647.00
2023-04-13T03:47:43.252Z,1636.00
2023-04-13T03:48:33.211Z,1653.00
2023-04-13T03:49:23.248Z,1658.00
2023-04-13T03:50:13.290Z,1653.00
2023-04-13T03:51:03.360Z,1663.00
2023-04-13T03:51:53.400Z,1672.00
2023-04-13T03:52:43.438Z,1654.00
2023-04-13T03:53:33.519Z,1647.00
2023-04-13T03:54:23.594Z,1659.00
2023-04-13T03:55:13.785Z,1651.00
2023-04-13T03:56:03.739Z,1662.00
2023-04-13T03:56:53.786Z,1665.00
2023-04-13T03:57:43.811Z,1662.00
2023-04-13T03:58:33.900Z,1661.00
2023-04-13T03:59:23.929Z,1654.00
2023-04-13T04:00:14.022Z,1657.00
2023-04-13T04:01:04.049Z,1641.00
2023-04-13T04:01:54.117Z,1666.00
2023-04-13T04:02:44.262Z,1643.00
2023-04-13T04:03:34.312Z,1656.00
2023-04-13T04:04:24.318Z,1650.00
2023-04-13T04:05:14.329Z,1654.00
2023-04-13T04:06:04.334Z,1655.00
2023-04-13T04:06:54.387Z,1634.00
2023-04-13T04:07:44.544Z,1648.00
2023-04-13T04:08:34.577Z,1639.00
2023-04-13T04:09:24.617Z,1644.00
2023-04-13T04:10:14.654Z,1653.00
2023-04-13T04:11:04.725Z,1636.00
2023-04-13T04:11:54.760Z,1634.00
2023-04-13T04:12:44.788Z,1615.00
2023-04-13T04:13:34.843Z,1626.00
2023-04-13T04:14:24.898Z,1640.00
2023-04-13T04:15:14.989Z,1623.00
2023-04-13T04:16:05.053Z,1628.00
2023-04-13T04:16:55.082Z,1631.00
2023-04-13T04:17:45.142Z,1637.00
2023-04-13T04:18:35.161Z,1614.00
2023-04-13T04:19:25.221Z,1617.00
2023-04-13T04:20:15.237Z,1629.00
2023-04-13T04:21:05.385Z,1619.00
2023-04-13T04:21:55.428Z,1639.00
2023-04-13T04:22:45.495Z,1624.00
2023-04-13T04:23:35.588Z,1619.00
2023-04-13T04:24:25.600Z,1616.00
2023-04-13T04:25:15.677Z,1617.00
2023-04-13T04:26:05.718Z,1618.00
2023-04-13T04:26:55.893Z,1614.00
2023-04-13T04:27:45.780Z,1623.00
2023-04-13T04:28:35.860Z,1608.00
2023-04-13T04:29:25.890Z,1592.00
2023-04-13T04:30:15.973Z,1612.00
2023-04-13T04:31:06.033Z,1615.00
2023-04-13T04:31:56.113Z,1603.00
2023-04-13T04:32:46.117Z,1623.00
2023-04-13T04:33:36.159Z,1610.00
2023-04-13T04:34:26.193Z,1570.00
2023-04-13T04:35:16.267Z,1589.00
2023-04-13T04:36:06.296Z,1610.00
2023-04-13T04:37:00.209Z,1611.00
2023-04-13T04:37:47.387Z,1580.00
2023-04-13T04:38:36.421Z,1608.00
2023-04-13T04:39:26.504Z,1591.00
2023-04-13T04:40:16.558Z,1567.00
2023-04-13T04:41:06.642Z,1581.00
2023-04-13T04:41:56.638Z,1590.00
2023-04-13T04:42:46.693Z,1573.00
2023-04-13T04:43:36.909Z,1582.00
2023-04-13T04:44:26.938Z,1583.00
2023-04-13T04:45:16.999Z,1573.00
2023-04-13T04:46:07.077Z,1583.00
2023-04-13T04:46:57.109Z,1574.00
2023-04-13T04:47:47.201Z,1560.00
2023-04-13T04:48:37.205Z,1575.00
2023-04-13T04:49:27.237Z,1547.00
2023-04-13T04:50:17.324Z,1547.00
2023-04-13T04:51:07.384Z,1539.00
2023-04-13T04:51:57.442Z,1535.00
2023-04-13T04:52:47.452Z,1516.00
2023-04-13T04:53:37.531Z,1531.00
2023-04-13T04:54:27.565Z,1531.00
2023-04-13T04:55:17.648Z,1515.00
2023-04-13T04:56:07.686Z,1543.00
2023-04-13T04:56:57.733Z,1507.00
2023-04-13T04:57:47.756Z,1525.00
2023-04-13T04:58:37.829Z,1509.00
2023-04-13T04:59:28.119Z,1511.00
2023-04-13T05:00:18.196Z,1502.00
2023-04-13T05:01:08.313Z,1488.00
2023-04-13T05:01:58.296Z,1477.00
2023-04-13T05:02:48.558Z,1486.00
2023-04-13T05:03:38.418Z,1482.00
2023-04-13T05:04:28.448Z,1485.00
2023-04-13T05:05:18.580Z,1444.00
2023-04-13T05:06:08.560Z,1469.00
2023-04-13T05:06:58.623Z,1454.00
2023-04-13T05:07:48.623Z,1471.00
2023-04-13T05:08:38.700Z,1457.00
2023-04-13T05:09:28.729Z,1457.00
2023-04-13T05:10:18.808Z,1452.00
2023-04-13T05:11:08.864Z,1455.00
2023-04-13T05:11:58.891Z,1438.00
2023-04-13T05:12:48.924Z,1443.00
2023-04-13T05:13:39.002Z,1455.00
2023-04-13T05:14:29.038Z,1441.00
2023-04-13T05:15:19.087Z,1425.00
2023-04-13T05:16:09.247Z,1400.00
2023-04-13T05:16:59.158Z,1424.00
2023-04-13T05:17:49.211Z,1401.00
2023-04-13T05:18:39.229Z,1414.00
2023-04-13T05:19:29.322Z,1383.00
2023-04-13T05:20:19.372Z,1375.00
2023-04-13T05:21:09.416Z,1391.00
2023-04-13T05:21:59.441Z,1366.00
2023-04-13T05:22:49.498Z,1359.00
2023-04-13T05:23:39.547Z,1346.00
2023-04-13T05:24:29.578Z,1360.00
2023-04-13T05:25:19.661Z,1330.00
2023-04-13T05:26:09.761Z,1339.00
2023-04-13T05:26:59.814Z,1353.00
2023-04-13T05:27:49.852Z,1354.00
2023-04-13T05:28:39.895Z,1345.00
2023-04-13T05:29:29.920Z,1354.00
2023-04-13T05:30:19.975Z,1322.00
2023-04-13T05:31:10.092Z,1329.00
2023-04-13T05:32:00.197Z,1330.00
2023-04-13T05:32:50.284Z,1339.00
2023-04-13T05:33:40.299Z,1306.00
2023-04-13T05:34:30.339Z,1322.00
2023-04-13T05:35:20.414Z,1320.00
2023-04-13T05:36:10.464Z,1306.00
2023-04-13T05:37:00.498Z,1316.00
2023-04-13T05:37:50.531Z,1322.00
2023-04-13T05:38:40.601Z,1305.00
2023-04-13T05:39:30.652Z,1288.00
2023-04-13T05:40:20.730Z,1300.00
2023-04-13T05:41:10.782Z,1287.00
2023-04-13T05:42:00.820Z,1297.00
2023-04-13T05:42:50.848Z,1280.00
2023-04-13T05:43:40.927Z,1265.00
2023-04-13T05:44:30.961Z,1282.00
2023-04-13T05:45:21.057Z,1258.00
2023-04-13T05:46:11.133Z,1253.00
2023-04-13T05:47:01.156Z,1250.00
2023-04-13T05:47:51.222Z,1233.00
2023-04-13T05:48:41.272Z,1243.00
2023-04-13T05:49:31.302Z,1227.00
2023-04-13T05:50:21.349Z,1229.00
2023-04-13T05:51:11.412Z,1220.00
2023-04-13T05:52:01.459Z,1205.00
2023-04-13T05:52:51.520Z,1213.00
2023-04-13T05:53:41.595Z,1221.00
2023-04-13T05:54:31.688Z,1213.00
2023-04-13T05:55:21.720Z,1229.00
2023-04-13T05:56:11.780Z,1198.00
2023-04-13T05:57:01.824Z,1216.00
2023-04-13T05:57:51.848Z,1209.00
2023-04-13T05:58:41.923Z,1180.00
2023-04-13T05:59:32.002Z,1187.00
2023-04-13T06:00:22.079Z,1186.00
2023-04-13T06:01:12.184Z,1176.00
2023-04-13T06:02:02.357Z,1163.00
2023-04-13T06:02:52.415Z,1169.00
2023-04-13T06:03:42.747Z,1163.00
2023-04-13T06:04:32.562Z,1160.00
2023-04-13T06:05:22.536Z,1156.00
2023-04-13T06:06:12.682Z,1155.00
2023-04-13T06:07:02.725Z,1160.00
2023-04-13T06:07:52.777Z,1162.00
2023-04-13T06:08:42.797Z,1161.00
2023-04-13T06:09:32.869Z,1139.00
2023-04-13T06:10:22.903Z,1145.00
2023-04-13T06:11:12.922Z,1143.00
2023-04-13T06:12:03.012Z,1144.00
2023-04-13T06:12:53.058Z,1139.00
2023-04-13T06:13:43.120Z,1118.00
2023-04-13T06:14:33.178Z,1122.00
2023-04-13T06:15:23.217Z,1107.00
2023-04-13T06:16:13.293Z,1117.00
2023-04-13T06:17:03.442Z,1110.00
2023-04-13T06:17:53.559Z,1081.00
2023-04-13T06:18:43.417Z,1094.00
2023-04-13T06:19:33.498Z,1054.00
2023-04-13T06:20:23.574Z,1079.00
2023-04-13T06:21:13.636Z,1072.00
2023-04-13T06:22:03.680Z,1079.00
2023-04-13T06:22:53.716Z,1050.00
2023-04-13T06:23:43.753Z,1044.00
2023-04-13T06:24:33.823Z,1043.00
2023-04-13T06:25:23.858Z,1049.00
2023-04-13T06:26:14.010Z,1048.00
2023-04-13T06:27:04.008Z,1038.00
2023-04-13T06:27:54.033Z,1024.00
2023-04-13T06:28:44.110Z,1037.00
2023-04-13T06:29:34.144Z,1027.00
2023-04-13T06:30:24.224Z,991.00
2023-04-13T06:31:14.357Z,1001.00
2023-04-13T06:32:04.348Z,998.00
2023-04-13T06:32:54.462Z,990.00
2023-04-13T06:33:44.500Z,995.00
2023-04-13T06:34:34.521Z,1002.00
2023-04-13T06:35:24.600Z,1001.00
2023-04-13T06:36:14.653Z,995.00
2023-04-13T06:37:04.688Z,983.00
2023-04-13T06:37:54.721Z,985.00
2023-04-13T06:38:44.811Z,992.00
2023-04-13T06:39:34.826Z,978.00
2023-04-13T06:40:24.900Z,972.00
2023-04-13T06:41:14.956Z,976.00
2023-04-13T06:42:05.031Z,966.00
2023-04-13T06:42:55.029Z,948.00
2023-04-13T06:43:45.497Z,940.00
2023-04-13T06:44:35.138Z,951.00
2023-04-13T06:45:25.180Z,919.00
2023-04-13T06:46:17.127Z,916.00
2023-04-13T06:47:05.316Z,916.00
2023-04-13T06:47:55.375Z,914.00
2023-04-13T06:48:45.406Z,916.00
2023-04-13T06:49:35.433Z,905.00
2023-04-13T06:50:25.598Z,910.00
2023-04-13T06:51:15.665Z,902.00
2023-04-13T06:52:05.712Z,916.00
2023-04-13T06:52:55.744Z,918.00
2023-04-13T06:53:45.825Z,908.00
2023-04-13T06:54:35.862Z,898.00
2023-04-13T06:55:25.946Z,885.00
2023-04-13T06:56:15.999Z,897.00
2023-04-13T06:57:06.045Z,876.00
2023-04-13T06:57:56.098Z,871.00
2023-04-13T06:58:46.125Z,885.00
2023-04-13T06:59:36.158Z,872.00
2023-04-13T07:00:29.977Z,868.00
2023-04-13T07:01:16.439Z,848.00
2023-04-13T07:02:06.462Z,853.00
2023-04-13T07:02:56.489Z,870.00
2023-04-13T07:03:46.744Z,850.00
2023-04-13T07:04:36.700Z,868.00
2023-04-13T07:05:26.658Z,853.00
2023-04-13T07:06:16.705Z,857.00
2023-04-13T07:07:06.741Z,854.00
2023-04-13T07:07:56.795Z,854.00
2023-04-13T07:08:46.848Z,840.00
2023-04-13T07:09:36.898Z,838.00
2023-04-13T07:10:26.982Z,846.00
2023-04-13T07:11:17.042Z,811.00
2023-04-13T07:12:07.091Z,843.00
2023-04-13T07:12:57.175Z,812.00
2023-04-13T07:13:47.241Z,808.00
2023-04-13T07:14:37.219Z,810.00
2023-04-13T07:15:27.274Z,800.00
2023-04-13T07:16:17.375Z,791.00
2023-04-13T07:17:07.394Z,806.00
2023-04-13T07:17:57.463Z,817.00
2023-04-13T07:18:47.476Z,802.00
2023-04-13T07:19:37.511Z,804.00
2023-04-13T07:20:27.612Z,788.00
2023-04-13T07:21:17.652Z,795.00
2023-04-13T07:22:07.687Z,835.00
2023-04-13T07:22:57.737Z,798.00
2023-04-13T07:23:47.765Z,816.00
2023-04-13T07:24:37.798Z,810.00
2023-04-13T07:25:27.844Z,789.00
2023-04-13T07:26:17.910Z,799.00
2023-04-13T07:27:07.947Z,795.00
2023-04-13T07:27:57.986Z,785.00
2023-04-13T07:28:48.047Z,781.00
2023-04-13T07:29:38.115Z,759.00
2023-04-13T07:30:28.192Z,772.00
2023-04-13T07:31:18.237Z,778.00
2023-04-13T07:32:08.274Z,769.00
2023-04-13T07:32:58.334Z,754.00
2023-04-13T07:33:48.379Z,732.00
2023-04-13T07:34:38.406Z,761.00
2023-04-13T07:35:28.443Z,752.00
2023-04-13T07:36:18.504Z,749.00
2023-04-13T07:37:08.591Z,745.00
2023-04-13T07:37:58.615Z,724.00
2023-04-13T07:38:48.661Z,739.00
2023-04-13T07:39:38.695Z,731.00
2023-04-13T07:40:28.740Z,732.00
2023-04-13T07:41:18.781Z,716.00
2023-04-13T07:42:08.821Z,722.00
2023-04-13T07:42:58.856Z,703.00
2023-04-13T07:43:48.990Z,700.00
2023-04-13T07:44:39.025Z,680.00
2023-04-13T07:45:29.130Z,700.00
2023-04-13T07:46:19.193Z,686.00
2023-04-13T07:47:09.261Z,673.00
2023-04-13T07:47:59.330Z,663.00
2023-04-13T07:48:49.320Z,688.00
2023-04-13T07:49:39.388Z,675.00
2023-04-13T07:50:29.465Z,662.00
2023-04-13T07:51:19.528Z,659.00
2023-04-13T07:52:09.556Z,661.00
2023-04-13T07:52:59.632Z,653.00
2023-04-13T07:53:49.667Z,655.00
2023-04-13T07:54:39.701Z,651.00
2023-04-13T07:55:29.748Z,655.00
2023-04-13T07:56:19.802Z,647.00
2023-04-13T07:57:09.845Z,653.00
2023-04-13T07:57:59.950Z,653.00
2023-04-13T07:58:49.984Z,646.00
2023-04-13T07:59:40.013Z,649.00
2023-04-13T08:00:30.088Z,631.00
2023-04-13T08:01:20.164Z,638.00
2023-04-13T08:02:10.274Z,637.00
2023-04-13T08:03:00.334Z,643.00
2023-04-13T08:03:50.382Z,633.00
2023-04-13T08:04:40.447Z,638.00
2023-04-13T08:05:30.498Z,630.00
2023-04-13T08:06:20.500Z,624.00
2023-04-13T08:07:10.533Z,626.00
2023-04-13T08:08:00.565Z,624.00
2023-04-13T08:08:50.645Z,623.00
2023-04-13T08:09:40.689Z,613.00
2023-04-13T08:10:30.782Z,626.00
2023-04-13T08:11:20.859Z,618.00
2023-04-13T08:12:10.894Z,612.00
2023-04-13T08:13:00.930Z,616.00
2023-04-13T08:13:50.998Z,610.00
2023-04-13T08:14:41.035Z,608.00
2023-04-13T08:15:31.084Z,610.00
2023-04-13T08:16:21.217Z,606.00
2023-04-13T08:17:11.201Z,595.00
2023-04-13T08:18:01.319Z,604.00
2023-04-13T08:18:51.304Z,603.00
2023-04-13T08:19:41.358Z,608.00
2023-04-13T08:20:31.415Z,601.00
2023-04-13T08:21:21.478Z,610.00
2023-04-13T08:22:11.510Z,613.00
2023-04-13T08:23:01.537Z,605.00
2023-04-13T08:23:51.576Z,599.00
2023-04-13T08:24:41.647Z,595.00
2023-04-13T08:25:31.737Z,604.00
2023-04-13T08:26:21.784Z,594.00
2023-04-13T08:27:11.823Z,598.00
2023-04-13T08:28:01.849Z,589.00
2023-04-13T08:28:51.946Z,585.00
2023-04-13T08:29:42.005Z,591.00
2023-04-13T08:30:32.083Z,589.00
2023-04-13T08:31:22.154Z,589.00
2023-04-13T08:32:12.265Z,584.00
2023-04-13T08:33:02.322Z,585.00
2023-04-13T08:33:52.520Z,581.00
2023-04-13T08:34:42.672Z,585.00
2023-04-13T08:35:32.620Z,589.00
2023-04-13T08:36:22.692Z,595.00
2023-04-13T08:37:12.700Z,582.00
2023-04-13T08:38:02.760Z,589.00
2023-04-13T08:38:52.806Z,584.00
2023-04-13T08:39:42.857Z,585.00
2023-04-13T08:40:32.930Z,583.00
2023-04-13T08:41:23.001Z,578.00
2023-04-13T08:42:13.051Z,577.00
2023-04-13T08:43:03.044Z,581.00
2023-04-13T08:43:53.132Z,567.00
2023-04-13T08:44:43.214Z,577.00
2023-04-13T08:45:33.244Z,573.00
2023-04-13T08:46:23.450Z,575.00
2023-04-13T08:47:13.333Z,578.00
2023-04-13T08:48:03.505Z,575.00
2023-04-13T08:48:54.412Z,572.00
2023-04-13T08:49:43.769Z,567.00
2023-04-13T08:50:33.847Z,569.00
2023-04-13T08:51:23.890Z,569.00
2023-04-13T08:52:16.565Z,562.00
2023-04-13T08:53:03.959Z,561.00
2023-04-13T08:53:54.037Z,555.00
2023-04-13T08:54:44.092Z,558.00
2023-04-13T08:55:34.169Z,561.00
2023-04-13T08:56:31.311Z,558.00
2023-04-13T08:57:15.283Z,562.00
2023-04-13T08:58:04.312Z,563.00
2023-04-13T08:58:54.374Z,565.00
2023-04-13T08:59:44.444Z,563.00
2023-04-13T09:00:34.523Z,559.00
2023-04-13T09:01:24.653Z,562.00
2023-04-13T09:02:14.752Z,567.00
2023-04-13T09:03:07.450Z,561.00
2023-04-13T09:03:55.041Z,560.00
2023-04-13T09:04:45.111Z,555.00
2023-04-13T09:05:34.979Z,556.00
2023-04-13T09:06:25.058Z,558.00
2023-04-13T09:07:15.110Z,554.00
2023-04-13T09:08:05.373Z,546.00
2023-04-13T09:08:55.402Z,551.00
2023-04-13T09:09:45.481Z,556.00
2023-04-13T09:10:35.515Z,531.00
2023-04-13T09:11:25.568Z,543.00
2023-04-13T09:12:15.597Z,546.00
2023-04-13T09:13:05.681Z,545.00
2023-04-13T09:13:55.710Z,550.00
2023-04-13T09:14:45.793Z,543.00
2023-04-13T09:15:35.846Z,544.00
2023-04-13T09:16:25.917Z,536.00
2023-04-13T09:17:16.059Z,546.00
2023-04-13T09:18:06.059Z,547.00
2023-04-13T09:18:56.033Z,547.00
2023-04-13T09:19:46.110Z,545.00
2023-04-13T09:20:36.162Z,548.00
2023-04-13T09:21:26.485Z,544.00
2023-04-13T09:22:16.563Z,540.00
2023-04-13T09:23:06.574Z,543.00
2023-04-13T09:23:56.635Z,545.00
2023-04-13T09:24:46.676Z,541.00
2023-04-13T09:25:36.718Z,548.00
2023-04-13T09:26:26.810Z,539.00
2023-04-13T09:27:16.837Z,538.00
2023-04-13T09:28:06.927Z,535.00
2023-04-13T09:28:57.306Z,542.00
2023-04-13T09:29:47.033Z,548.00
2023-04-13T09:30:37.377Z,543.00
2023-04-13T09:31:27.457Z,546.00
2023-04-13T09:32:17.480Z,541.00
2023-04-13T09:33:07.594Z,546.00
2023-04-13T09:33:57.701Z,544.00
2023-04-13T09:34:47.625Z,544.00
2023-04-13T09:35:37.658Z,547.00
2023-04-13T09:36:27.775Z,551.00
2023-04-13T09:37:17.872Z,537.00
2023-04-13T09:38:07.953Z,541.00
2023-04-13T09:38:58.445Z,539.00
2023-04-13T09:39:48.042Z,537.00
2023-04-13T09:40:38.092Z,541.00
2023-04-13T09:41:28.131Z,537.00
2023-04-13T09:42:18.186Z,537.00
2023-04-13T09:43:08.246Z,538.00
2023-04-13T09:43:58.322Z,544.00
2023-04-13T09:44:48.404Z,543.00
2023-04-13T09:45:38.412Z,536.00
2023-04-13T09:46:28.506Z,538.00
2023-04-13T09:47:18.566Z,539.00
2023-04-13T09:48:08.629Z,535.00
2023-04-13T09:48:58.951Z,537.00
2023-04-13T09:49:48.709Z,533.00
2023-04-13T09:50:38.893Z,530.00
2023-04-13T09:51:28.977Z,519.00
2023-04-13T09:52:19.025Z,519.00
2023-04-13T09:53:09.084Z,517.00
2023-04-13T09:53:59.112Z,516.00
2023-04-13T09:54:49.193Z,522.00
2023-04-13T09:55:39.234Z,519.00
2023-04-13T09:56:29.322Z,522.00
2023-04-13T09:57:19.356Z,515.00
2023-04-13T09:58:09.431Z,519.00
2023-04-13T09:58:59.594Z,519.00
2023-04-13T09:59:49.525Z,521.00
2023-04-13T10:00:39.560Z,509.00
2023-04-13T10:01:29.708Z,520.00
2023-04-13T10:02:19.818Z,521.00
2023-04-13T10:03:09.829Z,519.00
2023-04-13T10:04:00.149Z,513.00
2023-04-13T10:04:49.944Z,510.00
2023-04-13T10:05:57.079Z,516.00
2023-04-13T10:06:31.003Z,516.00
2023-04-13T10:07:20.044Z,515.00
2023-04-13T10:08:10.164Z,516.00
2023-04-13T10:09:00.167Z,507.00
2023-04-13T10:09:50.209Z,516.00
2023-04-13T10:10:40.280Z,510.00
2023-04-13T10:11:30.315Z,504.00
2023-04-13T10:12:20.506Z,505.00
2023-04-13T10:13:10.521Z,508.00
2023-04-13T10:14:00.828Z,503.00
2023-04-13T10:14:50.676Z,511.00
2023-04-13T10:15:40.863Z,506.00
2023-04-13T10:16:30.756Z,503.00
2023-04-13T10:17:20.875Z,508.00
2023-04-13T10:18:11.066Z,514.00
2023-04-13T10:19:01.135Z,511.00